Time;durP1;ratioP1;P1;durP2;ratioP2;P2;SDS_P1;SDS_P2;PMS_P1;PMS_P2;Temp;Humidity;BMP_temperature;BMP_pressure;BME280_temperature;BME280_humidity;BME280_pressure;Samples;Min_cycle;Max_cycle;Signal;HPM_P1;HPM_P2
2022/07/27 00:00:35;;;;;;;0.30;0.30;;;14.70;99.90;;;;;;5085499;28;19946;-77
2022/07/27 00:03:01;;;;;;;0.30;0.30;;;14.70;99.90;;;;;;5087172;28;20051;-79
2022/07/27 00:05:26;;;;;;;0.30;0.30;;;14.70;99.90;;;;;;5077947;28;20033;-77
2022/07/27 00:07:52;;;;;;;0.45;0.45;;;14.60;99.90;;;;;;5084801;28;20050;-77
2022/07/27 00:10:18;;;;;;;0.32;0.32;;;14.50;99.90;;;;;;5080998;28;20123;-78
2022/07/27 00:12:43;;;;;;;;;;;14.40;99.90;;;;;;5088123;28;20043;-77
2022/07/27 00:15:09;;;;;;;0.30;0.30;;;14.50;99.90;;;;;;5082159;28;19916;-77
2022/07/27 00:17:35;;;;;;;0.35;0.35;;;14.50;99.90;;;;;;5087363;28;20127;-78
2022/07/27 00:20:01;;;;;;;0.30;0.30;;;14.50;99.90;;;;;;5078731;28;20123;-80
2022/07/27 00:22:27;;;;;;;0.25;0.25;;;14.60;99.90;;;;;;5064245;28;20048;-77
2022/07/27 00:24:52;;;;;;;;;;;14.40;99.90;;;;;;5082952;28;20044;-78
2022/07/27 00:27:18;;;;;;;0.30;0.30;;;14.50;99.90;;;;;;5083671;28;19916;-80
2022/07/27 00:29:44;;;;;;;0.65;0.65;;;14.50;99.90;;;;;;5089883;28;20040;-77
2022/07/27 00:32:11;;;;;;;0.30;0.30;;;14.50;99.90;;;;;;5080870;28;20530;-77
2022/07/27 00:34:37;;;;;;;0.40;0.40;;;14.50;99.90;;;;;;5078865;28;20040;-77
2022/07/27 00:37:03;;;;;;;;;;;14.30;99.90;;;;;;5077559;28;20114;-78
2022/07/27 00:39:29;;;;;;;0.22;0.22;;;14.30;99.90;;;;;;5085483;28;19924;-79
2022/07/27 00:41:54;;;;;;;;;;;14.20;99.90;;;;;;5089227;28;20052;-78
2022/07/27 00:44:30;;;;;;;0.30;0.30;;;14.10;99.90;;;;;;5087411;28;19966;-79
2022/07/27 00:46:56;;;;;;;0.45;0.45;;;14.30;99.90;;;;;;5064068;28;20485;-78
2022/07/27 00:49:23;;;;;;;0.40;0.40;;;14.00;99.90;;;;;;5060286;28;20040;-78
2022/07/27 00:51:49;;;;;;;0.57;0.57;;;13.90;99.90;;;;;;5096448;28;20043;-78
2022/07/27 00:54:16;;;;;;;0.57;0.57;;;14.00;99.90;;;;;;5088665;28;20068;-79
2022/07/27 00:56:42;;;;;;;0.40;0.40;;;13.90;99.90;;;;;;5092315;28;20397;-80
2022/07/27 00:59:10;;;;;;;0.20;0.20;;;13.80;99.90;;;;;;5091889;28;20036;-78
2022/07/27 01:01:35;;;;;;;0.30;0.30;;;13.60;99.90;;;;;;5086245;28;20036;-77
2022/07/27 01:04:01;;;;;;;0.20;0.20;;;13.70;99.90;;;;;;5087743;28;20040;-77
2022/07/27 01:06:27;;;;;;;0.38;0.38;;;13.70;99.90;;;;;;5090618;28;20064;-77
2022/07/27 01:09:55;;;;;;;;;;;13.50;99.90;;;;;;5086947;28;20040;-78
2022/07/27 01:11:39;;;;;;;0.70;0.52;;;13.60;99.90;;;;;;5078199;28;19916;-77
2022/07/27 01:14:07;;;;;;;0.30;0.30;;;13.50;99.90;;;;;;5084385;28;20045;-76
2022/07/27 01:16:32;;;;;;;0.40;0.40;;;13.30;99.90;;;;;;5065004;28;20059;-78
2022/07/27 01:18:58;;;;;;;0.40;0.40;;;13.20;99.90;;;;;;5083287;28;20380;-78
2022/07/27 01:21:24;;;;;;;0.30;0.30;;;13.20;99.90;;;;;;5068368;28;20054;-79
2022/07/27 01:23:49;;;;;;;0.38;0.38;;;13.60;99.90;;;;;;5091006;28;20060;-79
2022/07/27 01:26:15;;;;;;;0.40;0.40;;;13.40;99.90;;;;;;5075153;28;20047;-79
2022/07/27 01:28:45;;;;;;;0.80;0.60;;;13.50;99.90;;;;;;5058428;28;20583;-79
2022/07/27 01:31:11;;;;;;;0.30;0.30;;;13.30;99.90;;;;;;5082753;28;20056;-79
2022/07/27 01:33:36;;;;;;;0.30;0.30;;;13.50;99.90;;;;;;5077588;28;20072;-79
2022/07/27 01:36:02;;;;;;;0.30;0.30;;;13.30;99.90;;;;;;5094466;28;20462;-77
2022/07/27 01:38:28;;;;;;;0.40;0.40;;;13.30;99.90;;;;;;5087756;28;20140;-78
2022/07/27 01:40:54;;;;;;;;;;;13.30;99.90;;;;;;5079718;28;20196;-79
2022/07/27 01:43:20;;;;;;;0.35;0.35;;;13.10;99.90;;;;;;5063096;28;20324;-78
2022/07/27 01:45:46;;;;;;;0.60;0.60;;;13.30;99.90;;;;;;5083101;28;20044;-78
2022/07/27 01:48:12;;;;;;;0.30;0.30;;;13.10;99.90;;;;;;5062408;28;20047;-79
2022/07/27 01:50:38;;;;;;;0.35;0.35;;;13.00;99.90;;;;;;5083924;28;20060;-79
2022/07/27 01:53:04;;;;;;;0.30;0.30;;;13.20;99.90;;;;;;5079639;28;20059;-77
2022/07/27 01:55:30;;;;;;;0.43;0.43;;;13.00;99.90;;;;;;5092946;28;20036;-77
2022/07/27 01:57:55;;;;;;;0.40;0.40;;;13.10;99.90;;;;;;5090964;28;20044;-79
2022/07/27 02:00:21;;;;;;;0.57;0.57;;;13.00;99.90;;;;;;5079313;28;20123;-77
2022/07/27 02:02:47;;;;;;;1.35;1.23;;;13.00;99.90;;;;;;5083095;28;20040;-78
2022/07/27 02:05:12;;;;;;;0.40;0.40;;;13.00;99.90;;;;;;5089603;28;20409;-80
2022/07/27 02:07:41;;;;;;;0.35;0.35;;;13.00;99.90;;;;;;5066486;28;20037;-78
2022/07/27 02:10:08;;;;;;;0.30;0.30;;;13.00;99.90;;;;;;5071605;28;20154;-77
2022/07/27 02:12:34;;;;;;;0.30;0.30;;;12.90;99.90;;;;;;5068050;28;20048;-77
2022/07/27 02:15:05;;;;;;;0.30;0.30;;;12.80;99.90;;;;;;5079831;28;20040;-77
2022/07/27 02:17:30;;;;;;;0.20;0.20;;;12.80;99.90;;;;;;5071927;28;20040;-77
2022/07/27 02:19:56;;;;;;;0.32;0.32;;;12.70;99.90;;;;;;5082836;28;20454;-79
2022/07/27 02:22:22;;;;;;;0.30;0.30;;;12.50;99.90;;;;;;5084996;28;20097;-79
2022/07/27 02:24:47;;;;;;;0.43;0.43;;;12.60;99.90;;;;;;5075264;28;20052;-79
2022/07/27 02:27:13;;;;;;;0.55;0.55;;;12.60;99.90;;;;;;5083127;28;20036;-79
2022/07/27 02:29:39;;;;;;;0.32;0.32;;;12.70;99.90;;;;;;5076627;28;20444;-79
2022/07/27 02:32:05;;;;;;;0.30;0.30;;;12.80;99.90;;;;;;5084838;28;20092;-78
2022/07/27 02:34:30;;;;;;;0.40;0.40;;;12.90;99.90;;;;;;5082829;28;20371;-78
2022/07/27 02:36:56;;;;;;;0.40;0.40;;;13.00;99.90;;;;;;5089940;28;20046;-79
2022/07/27 02:39:22;;;;;;;0.40;0.40;;;12.90;99.90;;;;;;5074819;28;20035;-77
2022/07/27 02:41:48;;;;;;;0.60;0.60;;;12.90;99.90;;;;;;5063649;28;20123;-77
2022/07/27 02:44:16;;;;;;;0.70;0.70;;;12.80;99.90;;;;;;5074130;28;20048;-78
2022/07/27 02:46:42;;;;;;;0.40;0.40;;;13.20;99.90;;;;;;5068335;28;20063;-79
2022/07/27 02:49:07;;;;;;;4.15;0.75;;;13.20;99.90;;;;;;5056568;28;20067;-79
2022/07/27 02:51:33;;;;;;;0.30;0.30;;;13.10;99.90;;;;;;5088813;28;20078;-78
2022/07/27 02:53:59;;;;;;;0.30;0.30;;;13.00;99.90;;;;;;5092024;28;20036;-79
2022/07/27 02:56:25;;;;;;;0.40;0.40;;;13.50;99.90;;;;;;5062536;28;20080;-79
2022/07/27 02:58:51;;;;;;;0.43;0.43;;;13.10;99.90;;;;;;5079356;28;20367;-77
2022/07/27 03:01:16;;;;;;;0.40;0.40;;;13.00;99.90;;;;;;5075421;28;20394;-79
2022/07/27 03:03:42;;;;;;;0.45;0.45;;;13.20;99.90;;;;;;5078862;28;20098;-77
2022/07/27 03:06:08;;;;;;;;;;;13.10;99.90;;;;;;5080472;28;20033;-79
2022/07/27 03:08:35;;;;;;;0.38;0.38;;;13.10;99.90;;;;;;5085005;28;20297;-79
2022/07/27 03:11:01;;;;;;;0.40;0.40;;;13.10;99.90;;;;;;5082881;28;20044;-77
2022/07/27 03:13:27;;;;;;;0.20;0.20;;;13.10;99.90;;;;;;5076332;28;20097;-81
2022/07/27 03:15:53;;;;;;;0.22;0.22;;;13.20;99.90;;;;;;5093041;28;20054;-78
2022/07/27 03:18:19;;;;;;;;;;;13.20;99.90;;;;;;5071651;28;20048;-80
2022/07/27 03:20:45;;;;;;;0.32;0.32;;;13.30;99.90;;;;;;5084361;28;19933;-78
2022/07/27 03:23:11;;;;;;;0.50;0.50;;;13.20;99.90;;;;;;5062788;28;20122;-78
2022/07/27 03:25:37;;;;;;;0.30;0.30;;;13.20;99.90;;;;;;5081977;28;20048;-79
2022/07/27 03:28:03;;;;;;;0.20;0.20;;;13.30;99.90;;;;;;5080431;28;20075;-79
2022/07/27 03:30:28;;;;;;;0.30;0.30;;;13.10;99.90;;;;;;5077890;28;20098;-78
2022/07/27 03:32:54;;;;;;;0.40;0.40;;;13.00;99.90;;;;;;5075258;28;20041;-77
2022/07/27 03:35:20;;;;;;;0.43;0.43;;;13.10;99.90;;;;;;5080345;28;20482;-78
2022/07/27 03:37:46;;;;;;;0.30;0.30;;;13.10;99.90;;;;;;5085505;28;20036;-79
2022/07/27 03:40:12;;;;;;;0.30;0.30;;;13.00;99.90;;;;;;5078035;28;20037;-78
2022/07/27 03:42:38;;;;;;;0.38;0.38;;;13.00;99.90;;;;;;5082636;28;20040;-77
2022/07/27 03:45:04;;;;;;;1.08;0.95;;;12.90;99.90;;;;;;5076982;28;20036;-78
2022/07/27 03:47:30;;;;;;;0.40;0.40;;;13.00;99.90;;;;;;5088496;28;20035;-77
2022/07/27 03:49:56;;;;;;;0.40;0.40;;;13.20;99.90;;;;;;5079538;28;20048;-79
2022/07/27 03:52:22;;;;;;;0.40;0.40;;;13.10;99.90;;;;;;5078920;28;20466;-79
2022/07/27 03:54:48;;;;;;;0.30;0.30;;;13.10;99.90;;;;;;5085197;28;20048;-77
2022/07/27 03:57:14;;;;;;;0.32;0.32;;;13.10;99.90;;;;;;5083615;28;20052;-79
2022/07/27 03:59:39;;;;;;;0.40;0.40;;;13.30;99.90;;;;;;5077228;28;20044;-78
2022/07/27 04:02:05;;;;;;;0.20;0.20;;;13.30;99.90;;;;;;5079613;28;20078;-77
2022/07/27 04:04:31;;;;;;;0.40;0.40;;;13.10;99.90;;;;;;5062032;28;20056;-79
2022/07/27 04:06:56;;;;;;;0.30;0.30;;;13.10;99.90;;;;;;5074666;28;20565;-78
2022/07/27 04:09:22;;;;;;;0.30;0.30;;;13.10;99.90;;;;;;5079774;28;20040;-79
2022/07/27 04:11:48;;;;;;;0.30;0.30;;;13.10;99.90;;;;;;5076791;28;20036;-77
2022/07/27 04:14:14;;;;;;;0.40;0.40;;;13.40;99.90;;;;;;5077925;28;20082;-79
2022/07/27 04:16:40;;;;;;;0.82;0.82;;;13.00;99.90;;;;;;5072473;28;20032;-76
2022/07/27 04:19:05;;;;;;;;;;;13.10;99.90;;;;;;5083092;28;20509;-77
2022/07/27 04:21:31;;;;;;;0.40;0.40;;;13.00;99.90;;;;;;5078698;28;20008;-77
2022/07/27 04:23:57;;;;;;;0.95;0.90;;;13.20;99.90;;;;;;5044134;28;20919;-78
2022/07/27 04:26:23;;;;;;;0.30;0.30;;;12.80;99.90;;;;;;5073512;28;20067;-78
2022/07/27 04:28:48;;;;;;;0.40;0.40;;;12.80;99.90;;;;;;5083103;28;20446;-75
2022/07/27 04:31:15;;;;;;;0.40;0.40;;;12.80;99.90;;;;;;5081462;28;20047;-77
2022/07/27 04:33:41;;;;;;;0.40;0.40;;;12.90;99.90;;;;;;5062663;28;20044;-79
2022/07/27 04:36:08;;;;;;;0.20;0.20;;;12.80;99.90;;;;;;5080537;28;20036;-78
2022/07/27 04:38:34;;;;;;;1.02;0.52;;;13.00;99.90;;;;;;5086414;28;20047;-78
2022/07/27 04:41:00;;;;;;;0.30;0.30;;;13.30;99.90;;;;;;5062963;28;20079;-79
2022/07/27 04:43:25;;;;;;;0.30;0.30;;;13.20;99.90;;;;;;5088236;28;20554;-80
2022/07/27 04:45:51;;;;;;;0.30;0.30;;;13.10;99.90;;;;;;5079119;28;20052;-78
2022/07/27 04:48:17;;;;;;;1.70;0.93;;;13.20;99.90;;;;;;5084177;28;21003;-78
2022/07/27 04:50:45;;;;;;;0.32;0.32;;;13.30;99.90;;;;;;5083809;28;20040;-76
2022/07/27 04:53:13;;;;;;;0.40;0.40;;;13.40;99.90;;;;;;5071953;28;20408;-78
2022/07/27 04:55:44;;;;;;;0.35;0.35;;;13.60;99.90;;;;;;5081401;28;20072;-80
2022/07/27 04:58:11;;;;;;;1.35;1.25;;;13.80;99.90;;;;;;5082683;28;20040;-80
2022/07/27 05:00:37;;;;;;;0.35;0.35;;;13.70;99.90;;;;;;5074620;28;20043;-76
2022/07/27 05:03:03;;;;;;;0.30;0.30;;;14.00;99.90;;;;;;5062124;28;20044;-78
2022/07/27 05:05:29;;;;;;;0.30;0.30;;;14.00;99.90;;;;;;5075304;28;20036;-78
2022/07/27 05:07:55;;;;;;;;;;;14.00;99.90;;;;;;5063085;28;20117;-80
2022/07/27 05:10:20;;;;;;;0.30;0.30;;;14.40;99.90;;;;;;5076246;28;20358;-78
2022/07/27 05:12:47;;;;;;;0.30;0.30;;;14.30;99.90;;;;;;5084614;28;20103;-77
2022/07/27 05:15:13;;;;;;;0.40;0.40;;;14.30;99.90;;;;;;5091689;28;20122;-79
2022/07/27 05:17:38;;;;;;;0.30;0.30;;;14.30;99.90;;;;;;5098035;28;20050;-78
2022/07/27 05:20:05;;;;;;;0.63;0.63;;;14.30;99.90;;;;;;5062391;28;20052;-77
2022/07/27 05:22:30;;;;;;;1.00;0.55;;;14.30;99.90;;;;;;5077190;28;20067;-80
2022/07/27 05:24:56;;;;;;;0.30;0.30;;;14.10;99.90;;;;;;5086397;28;20036;-77
2022/07/27 05:27:22;;;;;;;0.30;0.30;;;14.10;99.90;;;;;;5056825;28;20129;-78
2022/07/27 05:29:48;;;;;;;0.30;0.30;;;14.10;99.90;;;;;;5076696;28;20051;-79
2022/07/27 05:32:14;;;;;;;0.43;0.43;;;14.00;99.90;;;;;;5068247;28;20063;-78
2022/07/27 05:34:40;;;;;;;0.38;0.38;;;14.00;99.90;;;;;;5065825;28;20036;-81
2022/07/27 05:37:07;;;;;;;0.28;0.28;;;14.00;99.90;;;;;;5064904;28;20044;-81
2022/07/27 05:39:32;;;;;;;0.30;0.30;;;14.10;99.90;;;;;;5081314;28;20044;-81
2022/07/27 05:41:58;;;;;;;0.30;0.30;;;14.10;99.90;;;;;;5081606;28;20051;-81
2022/07/27 05:44:25;;;;;;;0.30;0.30;;;14.00;99.90;;;;;;5064539;28;20044;-79
2022/07/27 05:46:51;;;;;;;0.38;0.38;;;13.90;99.90;;;;;;5059020;28;20035;-80
2022/07/27 05:49:16;;;;;;;0.40;0.40;;;13.90;99.90;;;;;;5082589;28;20542;-79
2022/07/27 05:51:42;;;;;;;0.20;0.20;;;14.00;99.90;;;;;;5064873;28;20390;-80
2022/07/27 05:54:13;;;;;;;0.35;0.35;;;13.80;99.90;;;;;;5073912;28;20132;-80
2022/07/27 05:56:40;;;;;;;0.20;0.20;;;14.00;99.90;;;;;;5061337;28;20119;-77
2022/07/27 05:59:06;;;;;;;0.20;0.20;;;14.20;99.90;;;;;;5061905;28;20045;-80
2022/07/27 06:01:32;;;;;;;;;;;14.30;99.90;;;;;;5061649;28;20036;-78
2022/07/27 06:04:05;;;;;;;0.30;0.30;;;14.30;99.90;;;;;;5073877;28;19927;-80
2022/07/27 06:09:15;;;;;;;0.30;0.30;;;14.50;99.90;;;;;;5074136;28;20080;-81
2022/07/27 06:11:41;;;;;;;0.40;0.40;;;14.60;99.90;;;;;;5077780;28;20041;-78
2022/07/27 06:14:07;;;;;;;0.40;0.40;;;14.40;99.90;;;;;;5079675;28;20094;-80
2022/07/27 06:16:35;;;;;;;;;;;14.40;99.90;;;;;;5063093;28;20041;-78
2022/07/27 06:19:02;;;;;;;;;;;14.50;99.90;;;;;;5077519;28;19970;-82
2022/07/27 06:21:27;;;;;;;;;;;14.50;99.90;;;;;;5087188;28;19924;-79
2022/07/27 06:23:53;;;;;;;0.47;0.47;;;14.40;99.90;;;;;;5077400;28;19999;-80
2022/07/27 06:26:22;;;;;;;0.20;0.20;;;14.70;99.90;;;;;;5079609;28;20044;-80
2022/07/27 06:28:48;;;;;;;1.48;1.38;;;14.60;99.90;;;;;;5086183;28;20048;-80
2022/07/27 06:31:14;;;;;;;;;;;14.70;99.90;;;;;;5086626;28;20048;-77
2022/07/27 06:33:40;;;;;;;0.40;0.40;;;14.90;99.90;;;;;;5062248;28;19920;-78
2022/07/27 06:36:09;;;;;;;0.35;0.35;;;15.10;99.90;;;;;;5064288;28;20060;-79
2022/07/27 06:38:36;;;;;;;0.30;0.30;;;15.00;99.90;;;;;;5084166;28;20404;-81
2022/07/27 06:41:02;;;;;;;0.30;0.30;;;15.40;99.90;;;;;;5086870;28;20048;-78
2022/07/27 06:43:31;;;;;;;0.30;0.30;;;15.30;99.90;;;;;;5077538;28;20115;-80
2022/07/27 06:45:57;;;;;;;0.52;0.38;;;15.30;99.90;;;;;;5059696;28;20086;-80
2022/07/27 06:48:23;;;;;;;0.40;0.40;;;15.50;99.90;;;;;;5071246;28;20083;-79
2022/07/27 06:50:49;;;;;;;0.30;0.30;;;15.80;99.90;;;;;;5073860;28;20093;-77
2022/07/27 06:53:15;;;;;;;0.43;0.43;;;15.80;99.90;;;;;;5071354;28;20512;-77
2022/07/27 06:55:41;;;;;;;0.30;0.30;;;15.90;99.90;;;;;;5070704;28;20048;-80
2022/07/27 06:58:06;;;;;;;;;;;15.90;99.90;;;;;;5073261;28;20064;-81
2022/07/27 07:00:32;;;;;;;0.30;0.30;;;16.30;99.90;;;;;;5071221;28;20970;-79
2022/07/27 07:03:00;;;;;;;;;;;16.20;99.90;;;;;;5079243;28;20044;-77
2022/07/27 07:05:26;;;;;;;0.20;0.20;;;16.30;99.90;;;;;;5070889;28;19983;-77
2022/07/27 07:07:52;;;;;;;0.40;0.40;;;16.70;99.90;;;;;;5074536;28;20484;-80
2022/07/27 07:10:19;;;;;;;0.35;0.35;;;16.80;99.90;;;;;;5072022;28;20047;-78
2022/07/27 07:12:45;;;;;;;0.88;0.73;;;16.70;99.90;;;;;;5071670;28;20044;-77
2022/07/27 07:15:12;;;;;;;0.40;0.40;;;16.80;99.90;;;;;;5070960;28;20474;-80
2022/07/27 07:17:38;;;;;;;0.30;0.30;;;17.30;99.90;;;;;;5055492;28;20449;-78
2022/07/27 07:20:06;;;;;;;0.45;0.45;;;17.40;99.90;;;;;;5083525;28;20036;-77
2022/07/27 07:22:35;;;;;;;0.30;0.30;;;17.10;99.90;;;;;;5075742;28;20061;-79
2022/07/27 07:25:02;;;;;;;0.60;0.30;;;17.10;99.90;;;;;;5079161;28;20443;-81
2022/07/27 07:27:28;;;;;;;0.30;0.30;;;16.90;99.90;;;;;;5070616;28;20067;-77
2022/07/27 07:29:54;;;;;;;0.25;0.25;;;16.70;99.90;;;;;;5058546;28;20076;-79
2022/07/27 07:32:21;;;;;;;0.70;0.70;;;16.80;99.90;;;;;;5075586;28;20044;-79
2022/07/27 07:34:53;;;;;;;0.30;0.30;;;16.30;99.90;;;;;;5087686;28;20101;-80
2022/07/27 07:37:19;;;;;;;0.30;0.30;;;16.40;99.90;;;;;;5064958;28;20048;-77
2022/07/27 07:39:46;;;;;;;1.00;1.00;;;16.30;99.90;;;;;;5072751;28;20799;-79
2022/07/27 07:42:11;;;;;;;0.30;0.30;;;16.00;99.90;;;;;;5089393;28;20119;-77
2022/07/27 07:44:37;;;;;;;0.30;0.30;;;16.20;99.90;;;;;;5073374;28;20448;-77
2022/07/27 07:47:03;;;;;;;0.30;0.30;;;16.30;99.90;;;;;;5079276;28;20111;-78
2022/07/27 07:49:29;;;;;;;;;;;16.10;99.90;;;;;;5072666;28;20123;-77
2022/07/27 07:51:55;;;;;;;0.45;0.45;;;16.30;99.90;;;;;;5074530;28;19920;-78
2022/07/27 07:54:20;;;;;;;;;;;16.30;99.90;;;;;;5082574;28;20484;-80
2022/07/27 07:56:46;;;;;;;0.20;0.20;;;16.40;99.90;;;;;;5071730;28;19916;-79
2022/07/27 07:59:12;;;;;;;;;;;16.60;99.90;;;;;;5078995;28;20051;-80
2022/07/27 08:01:38;;;;;;;1.17;1.10;;;16.70;99.90;;;;;;5084316;28;20022;-79
2022/07/27 08:04:03;;;;;;;;;;;16.40;99.90;;;;;;5071164;28;20036;-79
2022/07/27 08:06:29;;;;;;;0.30;0.30;;;16.50;99.90;;;;;;5074195;28;20296;-75
2022/07/27 08:08:55;;;;;;;;;;;16.70;99.90;;;;;;5079758;28;20158;-78
2022/07/27 08:11:20;;;;;;;0.50;0.50;;;16.40;99.90;;;;;;5055171;28;19920;-78
2022/07/27 08:13:46;;;;;;;;;;;16.70;99.90;;;;;;5091231;28;20052;-79
2022/07/27 08:16:12;;;;;;;0.22;0.22;;;16.90;99.90;;;;;;5091671;28;19916;-84
2022/07/27 08:18:38;;;;;;;0.28;0.28;;;17.00;99.90;;;;;;5053969;28;20055;-80
2022/07/27 08:21:04;;;;;;;0.20;0.20;;;16.90;99.90;;;;;;5070814;28;20045;-77
2022/07/27 08:23:32;;;;;;;;;;;16.90;99.90;;;;;;5073046;28;20067;-79
2022/07/27 08:25:58;;;;;;;0.20;0.20;;;16.90;99.90;;;;;;5074433;28;19940;-79
2022/07/27 08:28:24;;;;;;;0.30;0.30;;;16.90;99.90;;;;;;5074387;28;20413;-80
2022/07/27 08:30:50;;;;;;;0.22;0.22;;;16.70;99.90;;;;;;5057572;28;20435;-78
2022/07/27 08:33:16;;;;;;;;;;;16.80;99.90;;;;;;5086414;28;20040;-79
2022/07/27 08:35:43;;;;;;;0.30;0.30;;;16.80;99.90;;;;;;5094553;28;19916;-78
2022/07/27 08:38:09;;;;;;;0.30;0.30;;;16.90;99.90;;;;;;5080823;28;20059;-82
2022/07/27 08:40:35;;;;;;;;;;;17.00;99.90;;;;;;5090823;28;20036;-78
2022/07/27 08:43:03;;;;;;;0.30;0.30;;;17.10;99.90;;;;;;5089438;28;19920;-78
2022/07/27 08:45:29;;;;;;;0.30;0.30;;;17.10;99.90;;;;;;5076822;28;20052;-79
2022/07/27 08:47:55;;;;;;;;;;;17.10;99.90;;;;;;5057804;28;20047;-78
2022/07/27 08:50:22;;;;;;;0.20;0.20;;;17.80;99.90;;;;;;5076900;28;20021;-81
2022/07/27 08:53:02;;;;;;;0.40;0.40;;;17.50;99.90;;;;;;5061480;28;20089;-80
2022/07/27 08:55:33;;;;;;;1.33;1.23;;;17.70;99.90;;;;;;5075063;28;20075;-78
2022/07/27 08:57:59;;;;;;;0.20;0.20;;;18.00;99.90;;;;;;5082006;28;20040;-78
2022/07/27 09:00:25;;;;;;;;;;;18.20;99.90;;;;;;5060311;28;20044;-78
2022/07/27 09:02:51;;;;;;;0.20;0.20;;;18.40;99.90;;;;;;5081767;28;19920;-78
2022/07/27 09:05:17;;;;;;;;;;;18.30;99.90;;;;;;5076154;28;20310;-80
2022/07/27 09:07:43;;;;;;;0.30;0.30;;;18.50;99.90;;;;;;5081795;28;19986;-76
2022/07/27 09:10:08;;;;;;;;;;;18.60;99.90;;;;;;5074164;28;20039;-76
2022/07/27 09:12:34;;;;;;;0.20;0.20;;;18.70;99.90;;;;;;5074914;28;19926;-78
2022/07/27 09:15:06;;;;;;;;;;;18.90;99.90;;;;;;5040654;28;20041;-80
2022/07/27 09:17:40;;;;;;;0.30;0.30;;;19.00;99.90;;;;;;5072917;28;19927;-79
2022/07/27 09:20:11;;;;;;;0.63;0.63;;;18.80;99.90;;;;;;5073393;28;20036;-78
2022/07/27 09:22:39;;;;;;;0.10;0.10;;;19.10;99.90;;;;;;5077646;28;20048;-76
2022/07/27 09:25:07;;;;;;;0.20;0.20;;;19.40;99.90;;;;;;5074516;28;20047;-79
2022/07/27 09:27:34;;;;;;;0.30;0.30;;;19.50;99.90;;;;;;5074589;28;20048;-77
2022/07/27 09:30:02;;;;;;;0.20;0.20;;;19.50;99.90;;;;;;5075735;28;20382;-76
2022/07/27 09:32:29;;;;;;;0.22;0.22;;;19.50;99.90;;;;;;5077783;28;20106;-80
2022/07/27 09:34:55;;;;;;;0.30;0.30;;;19.60;99.90;;;;;;5080276;28;20123;-81
2022/07/27 09:37:26;;;;;;;0.30;0.30;;;19.80;99.90;;;;;;5084493;28;20040;-78
2022/07/27 09:40:22;;;;;;;0.85;0.50;;;19.70;99.90;;;;;;5071959;28;20041;-78
2022/07/27 09:43:11;;;;;;;0.40;0.40;;;19.90;99.90;;;;;;5070346;28;20620;-77
2022/07/27 09:45:37;;;;;;;0.20;0.20;;;20.00;99.90;;;;;;5055122;28;20044;-78
2022/07/27 09:48:18;;;;;;;0.20;0.20;;;20.20;99.90;;;;;;5074037;28;20452;-78
2022/07/27 09:51:05;;;;;;;0.17;0.17;;;20.20;99.90;;;;;;5076193;28;20125;-78
2022/07/27 09:53:33;;;;;;;0.20;0.20;;;20.00;99.90;;;;;;5073529;28;20036;-77
2022/07/27 09:56:01;;;;;;;0.20;0.20;;;20.00;99.90;;;;;;5079389;28;20036;-77
2022/07/27 09:58:46;;;;;;;0.20;0.20;;;20.40;99.90;;;;;;5073325;28;20045;-76
2022/07/27 10:01:20;;;;;;;0.20;0.20;;;20.20;99.90;;;;;;5072190;28;20036;-80
2022/07/27 10:03:57;;;;;;;0.43;0.40;;;19.90;99.90;;;;;;5072728;28;20166;-78
2022/07/27 10:06:24;;;;;;;0.30;0.30;;;20.20;99.90;;;;;;5076067;28;20430;-77
2022/07/27 10:08:53;;;;;;;0.28;0.28;;;20.00;99.90;;;;;;5063911;28;20100;-77
2022/07/27 10:11:19;;;;;;;0.20;0.20;;;19.90;99.90;;;;;;5076870;28;20044;-79
2022/07/27 10:13:47;;;;;;;0.17;0.17;;;20.20;99.90;;;;;;5079793;28;20058;-81
2022/07/27 10:16:19;;;;;;;0.15;0.15;;;19.90;99.90;;;;;;5084926;28;20097;-78
2022/07/27 10:18:51;;;;;;;0.30;0.30;;;19.70;99.90;;;;;;5074222;28;20115;-77
2022/07/27 10:21:17;;;;;;;0.20;0.20;;;19.50;99.90;;;;;;5081539;28;20045;-78
2022/07/27 10:24:01;;;;;;;0.22;0.22;;;19.50;99.90;;;;;;5078504;28;20083;-77
2022/07/27 10:26:37;;;;;;;0.20;0.20;;;19.90;99.90;;;;;;5077353;28;20036;-81
2022/07/27 10:29:12;;;;;;;0.20;0.20;;;19.90;99.90;;;;;;5077412;28;20123;-79
2022/07/27 10:31:40;;;;;;;0.20;0.20;;;20.00;99.90;;;;;;5075167;28;20463;-80
2022/07/27 10:34:07;;;;;;;0.28;0.28;;;19.80;99.90;;;;;;5076545;28;20036;-80
2022/07/27 10:36:33;;;;;;;0.20;0.20;;;19.70;99.90;;;;;;5075705;28;20415;-76
2022/07/27 10:39:01;;;;;;;0.30;0.30;;;19.90;98.90;;;;;;5078741;28;20120;-76
2022/07/27 10:41:46;;;;;;;0.30;0.30;;;20.10;99.10;;;;;;5091916;28;20048;-79
2022/07/27 10:44:21;;;;;;;0.20;0.20;;;20.30;99.20;;;;;;5087399;28;20048;-79
2022/07/27 10:46:59;;;;;;;0.22;0.22;;;20.50;97.90;;;;;;5070470;28;21140;-79
2022/07/27 10:49:28;;;;;;;0.30;0.30;;;20.50;98.20;;;;;;5079200;28;20076;-80
2022/07/27 10:51:55;;;;;;;0.30;0.30;;;20.50;97.80;;;;;;5071130;28;20093;-78
2022/07/27 10:54:34;;;;;;;0.25;0.25;;;20.70;99.20;;;;;;5085479;28;20040;-77
2022/07/27 10:57:02;;;;;;;0.30;0.30;;;20.90;94.00;;;;;;5084131;28;20087;-79
2022/07/27 10:59:37;;;;;;;0.17;0.17;;;20.90;95.60;;;;;;5086401;28;20044;-80
2022/07/27 11:02:04;;;;;;;0.20;0.20;;;21.10;94.90;;;;;;5100438;27;20040;-80
2022/07/27 11:04:31;;;;;;;0.10;0.10;;;21.00;92.70;;;;;;5084976;28;20043;-81
2022/07/27 11:07:00;;;;;;;0.20;0.20;;;20.80;93.80;;;;;;5083128;28;20387;-75
2022/07/27 11:09:40;;;;;;;0.38;0.38;;;20.70;93.80;;;;;;5076035;28;20426;-78
2022/07/27 11:12:08;;;;;;;0.30;0.30;;;20.50;95.00;;;;;;5078946;28;20127;-78
2022/07/27 11:14:53;;;;;;;0.10;0.10;;;20.30;95.70;;;;;;5083084;28;20042;-76
2022/07/27 11:17:24;;;;;;;0.20;0.20;;;20.20;95.90;;;;;;5078185;28;20075;-78
2022/07/27 11:20:02;;;;;;;0.17;0.17;;;20.80;96.60;;;;;;5074754;28;20458;-79
2022/07/27 11:22:33;;;;;;;0.45;0.45;;;20.50;95.50;;;;;;5081291;28;20125;-77
2022/07/27 11:25:00;;;;;;;0.25;0.25;;;20.40;95.40;;;;;;5077218;28;20478;-78
2022/07/27 11:27:26;;;;;;;0.20;0.20;;;20.20;97.10;;;;;;5082061;28;20047;-80
2022/07/27 11:29:58;;;;;;;0.20;0.20;;;20.20;96.60;;;;;;5057644;28;20052;-79
2022/07/27 11:32:34;;;;;;;0.20;0.20;;;20.10;95.80;;;;;;5082648;28;20097;-79
2022/07/27 11:35:12;;;;;;;0.10;0.10;;;19.90;95.20;;;;;;5077984;28;20049;-77
2022/07/27 11:37:37;;;;;;;0.70;0.70;;;19.90;95.90;;;;;;5063172;28;20052;-77
2022/07/27 11:40:04;;;;;;;0.20;0.20;;;20.00;96.40;;;;;;5067378;28;20117;-81
2022/07/27 11:42:37;;;;;;;0.20;0.20;;;20.50;96.00;;;;;;5085564;28;20078;-80
2022/07/27 11:45:03;;;;;;;0.20;0.20;;;20.70;94.70;;;;;;5087035;28;20078;-78
2022/07/27 11:47:29;;;;;;;0.52;0.52;;;21.00;94.80;;;;;;5070777;28;20042;-76
2022/07/27 11:50:09;;;;;;;0.20;0.20;;;21.30;95.40;;;;;;5078539;28;20469;-81
2022/07/27 11:52:35;;;;;;;12.85;1.20;;;21.40;93.90;;;;;;5079253;28;20048;-79
2022/07/27 11:55:05;;;;;;;0.60;0.17;;;21.10;93.50;;;;;;5085967;28;20123;-79
2022/07/27 11:57:32;;;;;;;0.95;0.95;;;21.00;95.10;;;;;;5085884;28;20055;-78
2022/07/27 11:59:58;;;;;;;0.20;0.20;;;21.20;95.70;;;;;;5082429;28;20932;-79
2022/07/27 12:02:25;;;;;;;0.20;0.20;;;21.20;95.00;;;;;;5100810;28;20044;-79
2022/07/27 12:04:52;;;;;;;0.10;0.10;;;21.00;94.80;;;;;;5065849;28;20052;-80
2022/07/27 12:07:22;;;;;;;0.20;0.20;;;20.60;96.10;;;;;;5084646;28;20055;-76
2022/07/27 12:09:53;;;;;;;0.40;0.40;;;20.50;95.70;;;;;;5087047;28;20040;-80
2022/07/27 12:12:22;;;;;;;0.20;0.20;;;20.40;95.80;;;;;;5087391;28;20052;-77
2022/07/27 12:14:50;;;;;;;0.47;0.47;;;20.30;96.60;;;;;;5080912;28;20097;-80
2022/07/27 12:17:25;;;;;;;0.30;0.30;;;20.40;96.90;;;;;;5073301;28;20055;-81
2022/07/27 12:20:12;;;;;;;0.28;0.28;;;20.80;96.90;;;;;;5077923;28;20041;-79
2022/07/27 12:22:42;;;;;;;0.20;0.20;;;21.00;95.50;;;;;;5088062;28;20059;-79
2022/07/27 12:25:17;;;;;;;0.32;0.32;;;20.70;94.20;;;;;;5089589;28;20048;-81
2022/07/27 12:27:59;;;;;;;0.20;0.20;;;20.20;95.80;;;;;;5072016;28;20080;-80
2022/07/27 12:30:34;;;;;;;0.30;0.30;;;20.10;96.00;;;;;;5086687;28;20053;-78
2022/07/27 12:33:00;;;;;;;0.30;0.30;;;20.20;96.60;;;;;;5084000;28;20104;-76
2022/07/27 12:35:30;;;;;;;0.20;0.20;;;20.10;96.30;;;;;;5089176;28;20040;-76
2022/07/27 12:38:04;;;;;;;0.10;0.10;;;20.30;97.60;;;;;;5091202;28;20039;-80
2022/07/27 12:40:31;;;;;;;0.20;0.20;;;20.80;96.30;;;;;;5077799;28;20071;-78
2022/07/27 12:43:08;;;;;;;1.30;0.50;;;21.10;95.20;;;;;;5082329;28;20491;-78
2022/07/27 12:45:34;;;;;;;;;;;21.00;95.30;;;;;;5066966;28;20040;-76
2022/07/27 12:48:12;;;;;;;0.75;0.20;;;20.80;95.50;;;;;;5073383;28;19916;-77
2022/07/27 12:50:43;;;;;;;0.20;0.20;;;20.30;93.20;;;;;;5073180;28;20378;-80
2022/07/27 12:53:12;;;;;;;0.28;0.28;;;20.10;92.20;;;;;;5080563;28;20409;-77
2022/07/27 12:55:39;;;;;;;0.10;0.10;;;20.60;93.20;;;;;;5091464;28;20064;-77
2022/07/27 12:58:09;;;;;;;0.20;0.20;;;20.80;92.10;;;;;;5083061;28;20052;-78
2022/07/27 13:00:35;;;;;;;0.20;0.20;;;21.10;92.90;;;;;;5076593;28;20044;-78